This is the latest recevied weather packets stored in our database for station/object UIBB. If no packets are shown the sender has not sent any weather packets the latest 10 day(s).
| Time | Temp. | Humidity | Pressure | Rain* | Wind** | Luminosity | Snow |
|---|---|---|---|---|---|---|---|
| 1788103427 | 12.78° C | 87% | 1011 hPa | - | - | - | - |
| 1788102826 | 12.78° C | 87% | 1011 hPa | - | - | - | - |
| 1788102225 | 13.89° C | 82% | 1011 hPa | - | - | - | - |
| 1788101626 | 13.89° C | 82% | 1011 hPa | - | - | - | - |
| 1788101024 | 13.89° C | 82% | 1011 hPa | - | - | - | - |
| 1788100427 | 13.89° C | 82% | 1011 hPa | - | - | - | - |
| 1788099825 | 13.89° C | 82% | 1011 hPa | - | - | - | - |
| 1788099226 | 13.89° C | 82% | 1011 hPa | - | - | - | - |
| 1788098627 | 15° C | 82% | 1011 hPa | - | - | - | - |
| 1788098023 | 15° C | 82% | 1011 hPa | - | - | - | - |
| 1788097425 | 15° C | 82% | 1011 hPa | - | - | - | - |
| 1788096826 | 15.56° C | 72% | 1011 hPa | - | - | - | - |
| 1788096225 | 15.56° C | 72% | 1011 hPa | - | - | - | - |
| 1788095625 | 15.56° C | 72% | 1011 hPa | - | - | - | - |
| 1788095025 | 18.89° C | 59% | 1011 hPa | - | - | - | - |
| 1788094428 | 18.89° C | 59% | 1011 hPa | - | - | - | - |
| 1788093824 | 18.89° C | 59% | 1011 hPa | - | - | - | - |
| 1788093225 | 18.89° C | 59% | 1011 hPa | - | - | - | - |
| 1788092625 | 18.89° C | 59% | 1011 hPa | - | - | - | - |
| 1788092025 | 18.89° C | 59% | 1011 hPa | - | - | - | - |
| 1788091426 | 20° C | 56% | 1011 hPa | - | - | - | - |
| 1788090826 | 20° C | 56% | 1011 hPa | - | - | - | - |
| 1788090224 | 20° C | 56% | 1011 hPa | - | - | - | - |
| 1788089622 | 20.56° C | 52% | 1011 hPa | - | - | - | - |
| 1788089031 | 20.56° C | 52% | 1011 hPa | - | - | - | - |
* Rain since midnight (hover to see other rain measurements)
** Current wind speed in m/s (hover to see current wind gust speed)